sensor_id;sensor_type;location;lat;lon;timestamp;temperature;humidity
24814;DHT22;12904;50.088;11.414;2023-07-29T00:01:49;18.50;99.90
24814;DHT22;12904;50.088;11.414;2023-07-29T00:04:15;18.50;99.90
24814;DHT22;12904;50.088;11.414;2023-07-29T00:06:40;18.50;99.90
24814;DHT22;12904;50.088;11.414;2023-07-29T00:09:06;18.50;99.90
24814;DHT22;12904;50.088;11.414;2023-07-29T00:11:32;18.50;99.90
24814;DHT22;12904;50.088;11.414;2023-07-29T00:14:00;18.50;99.90
24814;DHT22;12904;50.088;11.414;2023-07-29T00:16:25;18.60;99.90
24814;DHT22;12904;50.088;11.414;2023-07-29T00:18:51;18.50;99.90
24814;DHT22;12904;50.088;11.414;2023-07-29T00:21:17;18.60;99.90
24814;DHT22;12904;50.088;11.414;2023-07-29T00:23:43;18.50;99.90
24814;DHT22;12904;50.088;11.414;2023-07-29T00:26:08;18.50;99.90
24814;DHT22;12904;50.088;11.414;2023-07-29T00:28:34;18.40;99.90
24814;DHT22;12904;50.088;11.414;2023-07-29T00:30:59;18.40;99.90
24814;DHT22;12904;50.088;11.414;2023-07-29T00:33:25;18.40;99.90
24814;DHT22;12904;50.088;11.414;2023-07-29T00:35:51;18.30;99.90
24814;DHT22;12904;50.088;11.414;2023-07-29T00:38:16;18.30;99.90
24814;DHT22;12904;50.088;11.414;2023-07-29T00:40:42;18.30;99.90
24814;DHT22;12904;50.088;11.414;2023-07-29T00:43:08;18.30;99.90
24814;DHT22;12904;50.088;11.414;2023-07-29T00:45:34;18.20;99.90
24814;DHT22;12904;50.088;11.414;2023-07-29T00:48:01;18.20;99.90
24814;DHT22;12904;50.088;11.414;2023-07-29T00:50:27;18.20;99.90
24814;DHT22;12904;50.088;11.414;2023-07-29T00:52:54;18.20;99.90
24814;DHT22;12904;50.088;11.414;2023-07-29T00:55:20;18.10;99.90
24814;DHT22;12904;50.088;11.414;2023-07-29T00:57:46;18.10;99.90
24814;DHT22;12904;50.088;11.414;2023-07-29T01:00:15;18.10;99.90
24814;DHT22;12904;50.088;11.414;2023-07-29T01:02:43;18.10;99.90
24814;DHT22;12904;50.088;11.414;2023-07-29T01:05:09;18.10;99.90
24814;DHT22;12904;50.088;11.414;2023-07-29T01:15:55;18.00;99.90
24814;DHT22;12904;50.088;11.414;2023-07-29T01:18:26;18.10;99.90
24814;DHT22;12904;50.088;11.414;2023-07-29T01:20:54;18.10;99.90
24814;DHT22;12904;50.088;11.414;2023-07-29T01:23:29;18.00;99.90
24814;DHT22;12904;50.088;11.414;2023-07-29T01:25:54;18.10;99.90
24814;DHT22;12904;50.088;11.414;2023-07-29T01:28:20;18.10;99.90
24814;DHT22;12904;50.088;11.414;2023-07-29T01:30:49;18.10;99.90
24814;DHT22;12904;50.088;11.414;2023-07-29T01:33:25;18.10;99.90
24814;DHT22;12904;50.088;11.414;2023-07-29T01:38:27;18.20;99.90
24814;DHT22;12904;50.088;11.414;2023-07-29T01:40:56;18.20;99.90
24814;DHT22;12904;50.088;11.414;2023-07-29T01:43:23;18.20;99.90
24814;DHT22;12904;50.088;11.414;2023-07-29T01:45:51;18.20;99.90
24814;DHT22;12904;50.088;11.414;2023-07-29T01:48:17;18.20;99.90
24814;DHT22;12904;50.088;11.414;2023-07-29T01:50:43;18.20;99.90
24814;DHT22;12904;50.088;11.414;2023-07-29T01:53:08;18.30;99.90
24814;DHT22;12904;50.088;11.414;2023-07-29T01:55:34;18.30;99.90
24814;DHT22;12904;50.088;11.414;2023-07-29T01:57:59;18.30;99.90
24814;DHT22;12904;50.088;11.414;2023-07-29T02:00:25;18.30;99.90
24814;DHT22;12904;50.088;11.414;2023-07-29T02:02:51;18.30;99.90
24814;DHT22;12904;50.088;11.414;2023-07-29T02:05:16;18.30;99.90
24814;DHT22;12904;50.088;11.414;2023-07-29T02:07:42;18.30;99.90
24814;DHT22;12904;50.088;11.414;2023-07-29T02:10:08;18.30;99.90
24814;DHT22;12904;50.088;11.414;2023-07-29T02:12:34;18.30;99.90
24814;DHT22;12904;50.088;11.414;2023-07-29T02:14:59;18.30;99.90
24814;DHT22;12904;50.088;11.414;2023-07-29T02:17:25;18.30;99.90
24814;DHT22;12904;50.088;11.414;2023-07-29T02:19:51;18.30;99.90
24814;DHT22;12904;50.088;11.414;2023-07-29T02:22:17;18.30;99.90
24814;DHT22;12904;50.088;11.414;2023-07-29T02:24:44;18.30;99.90
24814;DHT22;12904;50.088;11.414;2023-07-29T02:27:10;18.40;99.90
24814;DHT22;12904;50.088;11.414;2023-07-29T02:29:36;18.40;99.90
24814;DHT22;12904;50.088;11.414;2023-07-29T02:32:02;18.40;99.90
24814;DHT22;12904;50.088;11.414;2023-07-29T02:34:28;18.30;99.90
24814;DHT22;12904;50.088;11.414;2023-07-29T02:36:54;18.40;99.90
24814;DHT22;12904;50.088;11.414;2023-07-29T02:39:20;18.30;99.90
24814;DHT22;12904;50.088;11.414;2023-07-29T02:41:45;18.30;99.90
24814;DHT22;12904;50.088;11.414;2023-07-29T02:44:11;18.30;99.90
24814;DHT22;12904;50.088;11.414;2023-07-29T02:46:37;18.40;99.90
24814;DHT22;12904;50.088;11.414;2023-07-29T02:49:03;18.40;99.90
24814;DHT22;12904;50.088;11.414;2023-07-29T02:51:30;18.40;99.90
24814;DHT22;12904;50.088;11.414;2023-07-29T02:53:55;18.40;99.90
24814;DHT22;12904;50.088;11.414;2023-07-29T02:56:21;18.40;99.90
24814;DHT22;12904;50.088;11.414;2023-07-29T02:58:47;18.40;99.90
24814;DHT22;12904;50.088;11.414;2023-07-29T03:01:12;18.40;99.90
24814;DHT22;12904;50.088;11.414;2023-07-29T03:03:39;18.40;99.90
24814;DHT22;12904;50.088;11.414;2023-07-29T03:06:06;18.40;99.90
24814;DHT22;12904;50.088;11.414;2023-07-29T03:08:33;18.30;99.90
24814;DHT22;12904;50.088;11.414;2023-07-29T03:10:59;18.30;99.90
24814;DHT22;12904;50.088;11.414;2023-07-29T03:13:30;18.20;99.90
24814;DHT22;12904;50.088;11.414;2023-07-29T03:16:07;18.20;99.90
24814;DHT22;12904;50.088;11.414;2023-07-29T03:18:34;18.10;99.90
24814;DHT22;12904;50.088;11.414;2023-07-29T03:20:59;18.00;99.90
24814;DHT22;12904;50.088;11.414;2023-07-29T03:23:25;17.90;99.90
24814;DHT22;12904;50.088;11.414;2023-07-29T03:25:51;17.80;99.90
24814;DHT22;12904;50.088;11.414;2023-07-29T03:28:18;17.80;99.90
24814;DHT22;12904;50.088;11.414;2023-07-29T03:30:44;17.70;99.90
24814;DHT22;12904;50.088;11.414;2023-07-29T03:33:09;17.70;99.90
24814;DHT22;12904;50.088;11.414;2023-07-29T03:35:35;17.70;99.90
24814;DHT22;12904;50.088;11.414;2023-07-29T03:38:01;17.70;99.90
24814;DHT22;12904;50.088;11.414;2023-07-29T03:40:26;17.70;99.90
24814;DHT22;12904;50.088;11.414;2023-07-29T03:42:52;17.60;99.90
24814;DHT22;12904;50.088;11.414;2023-07-29T03:45:17;17.60;99.90
24814;DHT22;12904;50.088;11.414;2023-07-29T03:47:43;17.60;99.90
24814;DHT22;12904;50.088;11.414;2023-07-29T03:50:09;17.60;99.90
24814;DHT22;12904;50.088;11.414;2023-07-29T03:52:34;17.60;99.90
24814;DHT22;12904;50.088;11.414;2023-07-29T03:55:00;17.60;99.90
24814;DHT22;12904;50.088;11.414;2023-07-29T03:57:26;17.50;99.90
24814;DHT22;12904;50.088;11.414;2023-07-29T03:59:51;17.50;99.90
24814;DHT22;12904;50.088;11.414;2023-07-29T04:02:17;17.50;99.90
24814;DHT22;12904;50.088;11.414;2023-07-29T04:04:43;17.50;99.90
24814;DHT22;12904;50.088;11.414;2023-07-29T04:07:12;17.40;99.90
24814;DHT22;12904;50.088;11.414;2023-07-29T04:09:38;17.40;99.90
24814;DHT22;12904;50.088;11.414;2023-07-29T04:12:04;17.40;99.90
24814;DHT22;12904;50.088;11.414;2023-07-29T04:14:30;17.40;99.90
24814;DHT22;12904;50.088;11.414;2023-07-29T04:16:55;17.40;99.90
24814;DHT22;12904;50.088;11.414;2023-07-29T04:19:21;17.40;99.90
24814;DHT22;12904;50.088;11.414;2023-07-29T04:21:47;17.50;99.90
24814;DHT22;12904;50.088;11.414;2023-07-29T04:24:13;17.50;99.90
24814;DHT22;12904;50.088;11.414;2023-07-29T04:26:38;17.60;99.90
24814;DHT22;12904;50.088;11.414;2023-07-29T04:29:05;17.60;99.90
24814;DHT22;12904;50.088;11.414;2023-07-29T04:31:30;17.60;99.90
24814;DHT22;12904;50.088;11.414;2023-07-29T04:33:56;17.60;99.90
24814;DHT22;12904;50.088;11.414;2023-07-29T04:36:21;17.70;99.90
24814;DHT22;12904;50.088;11.414;2023-07-29T04:38:47;17.70;99.90
24814;DHT22;12904;50.088;11.414;2023-07-29T04:41:13;17.70;99.90
24814;DHT22;12904;50.088;11.414;2023-07-29T04:43:38;17.70;99.90
24814;DHT22;12904;50.088;11.414;2023-07-29T04:46:07;17.70;99.90
24814;DHT22;12904;50.088;11.414;2023-07-29T04:48:33;17.80;99.90
24814;DHT22;12904;50.088;11.414;2023-07-29T04:50:59;17.80;99.90
24814;DHT22;12904;50.088;11.414;2023-07-29T04:53:25;17.90;99.90
24814;DHT22;12904;50.088;11.414;2023-07-29T04:55:50;17.90;99.90
24814;DHT22;12904;50.088;11.414;2023-07-29T04:58:16;18.00;99.90
24814;DHT22;12904;50.088;11.414;2023-07-29T05:00:41;18.10;99.90
24814;DHT22;12904;50.088;11.414;2023-07-29T05:03:07;18.20;99.90
24814;DHT22;12904;50.088;11.414;2023-07-29T05:05:33;18.30;99.90
24814;DHT22;12904;50.088;11.414;2023-07-29T05:07:58;18.50;99.90
24814;DHT22;12904;50.088;11.414;2023-07-29T05:10:24;18.60;99.90
24814;DHT22;12904;50.088;11.414;2023-07-29T05:12:50;18.70;99.90
24814;DHT22;12904;50.088;11.414;2023-07-29T05:15:16;18.80;99.90
24814;DHT22;12904;50.088;11.414;2023-07-29T05:17:41;18.90;99.90
24814;DHT22;12904;50.088;11.414;2023-07-29T05:20:07;19.00;99.90
24814;DHT22;12904;50.088;11.414;2023-07-29T05:22:33;19.00;99.90
24814;DHT22;12904;50.088;11.414;2023-07-29T05:24:59;19.00;99.90
24814;DHT22;12904;50.088;11.414;2023-07-29T05:27:24;18.90;99.90
24814;DHT22;12904;50.088;11.414;2023-07-29T05:29:50;18.90;99.90
24814;DHT22;12904;50.088;11.414;2023-07-29T05:32:15;18.90;99.90
24814;DHT22;12904;50.088;11.414;2023-07-29T05:34:41;19.00;99.90
24814;DHT22;12904;50.088;11.414;2023-07-29T05:37:07;19.00;99.90
24814;DHT22;12904;50.088;11.414;2023-07-29T05:39:33;18.90;99.90
24814;DHT22;12904;50.088;11.414;2023-07-29T05:41:59;18.80;99.90
24814;DHT22;12904;50.088;11.414;2023-07-29T05:44:28;18.70;99.90
24814;DHT22;12904;50.088;11.414;2023-07-29T05:46:53;18.60;99.90
24814;DHT22;12904;50.088;11.414;2023-07-29T05:49:19;18.50;99.90
24814;DHT22;12904;50.088;11.414;2023-07-29T05:51:44;18.30;99.90
24814;DHT22;12904;50.088;11.414;2023-07-29T05:54:10;18.20;99.90
24814;DHT22;12904;50.088;11.414;2023-07-29T05:56:35;18.00;99.90
24814;DHT22;12904;50.088;11.414;2023-07-29T05:59:01;17.90;99.90
24814;DHT22;12904;50.088;11.414;2023-07-29T06:01:27;17.90;99.90
24814;DHT22;12904;50.088;11.414;2023-07-29T06:03:52;17.90;99.90
24814;DHT22;12904;50.088;11.414;2023-07-29T06:06:18;17.90;99.90
24814;DHT22;12904;50.088;11.414;2023-07-29T06:08:43;18.00;99.90
24814;DHT22;12904;50.088;11.414;2023-07-29T06:11:09;18.00;99.90
24814;DHT22;12904;50.088;11.414;2023-07-29T06:13:35;18.10;99.90
24814;DHT22;12904;50.088;11.414;2023-07-29T06:16:01;18.20;99.90
24814;DHT22;12904;50.088;11.414;2023-07-29T06:18:26;18.20;99.90
24814;DHT22;12904;50.088;11.414;2023-07-29T06:20:52;18.30;99.90
24814;DHT22;12904;50.088;11.414;2023-07-29T06:23:18;18.40;99.90
24814;DHT22;12904;50.088;11.414;2023-07-29T06:25:43;18.40;99.90
24814;DHT22;12904;50.088;11.414;2023-07-29T06:28:09;18.40;99.90
24814;DHT22;12904;50.088;11.414;2023-07-29T06:30:35;18.40;99.90
24814;DHT22;12904;50.088;11.414;2023-07-29T06:33:01;18.50;99.90
24814;DHT22;12904;50.088;11.414;2023-07-29T06:35:28;18.50;99.90
24814;DHT22;12904;50.088;11.414;2023-07-29T06:37:54;18.60;99.90
24814;DHT22;12904;50.088;11.414;2023-07-29T06:40:19;18.60;99.90
24814;DHT22;12904;50.088;11.414;2023-07-29T06:42:45;18.60;99.90
24814;DHT22;12904;50.088;11.414;2023-07-29T06:45:11;18.60;99.90
24814;DHT22;12904;50.088;11.414;2023-07-29T06:47:37;18.60;99.90
24814;DHT22;12904;50.088;11.414;2023-07-29T06:50:03;18.50;99.90
24814;DHT22;12904;50.088;11.414;2023-07-29T06:52:28;18.60;99.90
24814;DHT22;12904;50.088;11.414;2023-07-29T06:54:54;18.50;99.90
24814;DHT22;12904;50.088;11.414;2023-07-29T06:57:19;18.60;99.90
24814;DHT22;12904;50.088;11.414;2023-07-29T06:59:45;18.50;99.90
24814;DHT22;12904;50.088;11.414;2023-07-29T07:02:11;18.50;99.90
24814;DHT22;12904;50.088;11.414;2023-07-29T07:04:36;18.40;99.90
24814;DHT22;12904;50.088;11.414;2023-07-29T07:07:02;18.30;99.90
24814;DHT22;12904;50.088;11.414;2023-07-29T07:09:28;18.30;99.90
24814;DHT22;12904;50.088;11.414;2023-07-29T07:11:53;18.10;99.90
24814;DHT22;12904;50.088;11.414;2023-07-29T07:14:19;18.00;99.90
24814;DHT22;12904;50.088;11.414;2023-07-29T07:16:44;18.00;99.90
24814;DHT22;12904;50.088;11.414;2023-07-29T07:19:11;17.90;99.90
24814;DHT22;12904;50.088;11.414;2023-07-29T07:21:36;17.90;99.90
24814;DHT22;12904;50.088;11.414;2023-07-29T07:24:02;17.80;99.90
24814;DHT22;12904;50.088;11.414;2023-07-29T07:26:28;17.80;99.90
24814;DHT22;12904;50.088;11.414;2023-07-29T07:28:53;17.70;99.90
24814;DHT22;12904;50.088;11.414;2023-07-29T07:31:19;17.70;99.90
24814;DHT22;12904;50.088;11.414;2023-07-29T07:33:45;17.70;99.90
24814;DHT22;12904;50.088;11.414;2023-07-29T07:36:10;17.70;99.90
24814;DHT22;12904;50.088;11.414;2023-07-29T07:38:36;17.80;99.90
24814;DHT22;12904;50.088;11.414;2023-07-29T07:41:02;17.90;99.90
24814;DHT22;12904;50.088;11.414;2023-07-29T07:43:27;17.90;99.90
24814;DHT22;12904;50.088;11.414;2023-07-29T07:46:00;17.90;99.90
24814;DHT22;12904;50.088;11.414;2023-07-29T07:48:27;17.90;99.90
24814;DHT22;12904;50.088;11.414;2023-07-29T07:50:53;17.90;99.90
24814;DHT22;12904;50.088;11.414;2023-07-29T07:53:18;17.90;99.90
24814;DHT22;12904;50.088;11.414;2023-07-29T07:55:45;18.00;99.90
24814;DHT22;12904;50.088;11.414;2023-07-29T07:58:11;18.10;99.90
24814;DHT22;12904;50.088;11.414;2023-07-29T08:00:36;18.10;99.90
24814;DHT22;12904;50.088;11.414;2023-07-29T08:03:02;18.20;99.90
24814;DHT22;12904;50.088;11.414;2023-07-29T08:05:28;18.30;99.90
24814;DHT22;12904;50.088;11.414;2023-07-29T08:07:53;18.30;99.90
24814;DHT22;12904;50.088;11.414;2023-07-29T08:10:19;18.30;99.90
24814;DHT22;12904;50.088;11.414;2023-07-29T08:12:44;18.30;99.90
24814;DHT22;12904;50.088;11.414;2023-07-29T08:15:10;18.30;99.90
24814;DHT22;12904;50.088;11.414;2023-07-29T08:17:35;18.40;99.90
24814;DHT22;12904;50.088;11.414;2023-07-29T08:20:01;18.40;99.90
24814;DHT22;12904;50.088;11.414;2023-07-29T08:22:27;18.50;99.90
24814;DHT22;12904;50.088;11.414;2023-07-29T08:24:52;18.50;99.90
24814;DHT22;12904;50.088;11.414;2023-07-29T08:27:18;18.50;99.90
24814;DHT22;12904;50.088;11.414;2023-07-29T08:29:43;18.50;99.90
24814;DHT22;12904;50.088;11.414;2023-07-29T08:32:09;18.50;99.90
24814;DHT22;12904;50.088;11.414;2023-07-29T08:34:35;18.50;99.90
24814;DHT22;12904;50.088;11.414;2023-07-29T08:37:01;18.40;99.90
24814;DHT22;12904;50.088;11.414;2023-07-29T08:39:27;18.50;99.90
24814;DHT22;12904;50.088;11.414;2023-07-29T08:42:07;18.40;99.90
24814;DHT22;12904;50.088;11.414;2023-07-29T08:44:43;18.40;99.90
24814;DHT22;12904;50.088;11.414;2023-07-29T08:47:09;18.40;99.90
24814;DHT22;12904;50.088;11.414;2023-07-29T08:49:36;18.40;99.90
24814;DHT22;12904;50.088;11.414;2023-07-29T08:52:04;18.40;99.90
24814;DHT22;12904;50.088;11.414;2023-07-29T08:54:30;18.50;99.90
24814;DHT22;12904;50.088;11.414;2023-07-29T08:56:56;18.50;99.90
24814;DHT22;12904;50.088;11.414;2023-07-29T08:59:22;18.50;99.90
24814;DHT22;12904;50.088;11.414;2023-07-29T09:01:49;18.50;99.90
24814;DHT22;12904;50.088;11.414;2023-07-29T09:04:15;18.50;99.90
24814;DHT22;12904;50.088;11.414;2023-07-29T09:06:43;18.50;99.90
24814;DHT22;12904;50.088;11.414;2023-07-29T09:09:09;18.60;99.90
24814;DHT22;12904;50.088;11.414;2023-07-29T09:11:35;18.70;99.90
24814;DHT22;12904;50.088;11.414;2023-07-29T09:14:01;18.70;99.90
24814;DHT22;12904;50.088;11.414;2023-07-29T09:16:26;18.80;99.90
24814;DHT22;12904;50.088;11.414;2023-07-29T09:18:52;18.90;99.90
24814;DHT22;12904;50.088;11.414;2023-07-29T09:21:23;18.90;99.90
24814;DHT22;12904;50.088;11.414;2023-07-29T09:23:50;18.90;99.90
24814;DHT22;12904;50.088;11.414;2023-07-29T09:26:25;18.90;99.90
24814;DHT22;12904;50.088;11.414;2023-07-29T09:28:57;18.70;99.90
24814;DHT22;12904;50.088;11.414;2023-07-29T09:31:25;18.60;99.90
24814;DHT22;12904;50.088;11.414;2023-07-29T09:34:03;18.60;99.90
24814;DHT22;12904;50.088;11.414;2023-07-29T09:36:33;18.60;99.90
24814;DHT22;12904;50.088;11.414;2023-07-29T09:38:59;18.60;99.90
24814;DHT22;12904;50.088;11.414;2023-07-29T09:41:29;18.70;99.90
24814;DHT22;12904;50.088;11.414;2023-07-29T09:43:56;18.80;99.90
24814;DHT22;12904;50.088;11.414;2023-07-29T09:46:24;19.00;99.90
24814;DHT22;12904;50.088;11.414;2023-07-29T09:48:53;18.90;99.90
24814;DHT22;12904;50.088;11.414;2023-07-29T09:51:19;19.00;99.90
24814;DHT22;12904;50.088;11.414;2023-07-29T09:53:47;18.90;99.90
24814;DHT22;12904;50.088;11.414;2023-07-29T09:56:14;18.90;99.90
24814;DHT22;12904;50.088;11.414;2023-07-29T09:58:40;18.90;99.90
24814;DHT22;12904;50.088;11.414;2023-07-29T10:01:08;19.00;99.90
24814;DHT22;12904;50.088;11.414;2023-07-29T10:03:34;19.10;99.90
24814;DHT22;12904;50.088;11.414;2023-07-29T10:06:04;19.20;99.90
24814;DHT22;12904;50.088;11.414;2023-07-29T10:08:31;19.30;99.90
24814;DHT22;12904;50.088;11.414;2023-07-29T10:10:59;19.30;99.90
24814;DHT22;12904;50.088;11.414;2023-07-29T10:13:26;19.30;99.90
24814;DHT22;12904;50.088;11.414;2023-07-29T10:15:53;19.30;99.90
24814;DHT22;12904;50.088;11.414;2023-07-29T10:18:20;19.30;99.90
24814;DHT22;12904;50.088;11.414;2023-07-29T10:20:50;19.30;99.90
24814;DHT22;12904;50.088;11.414;2023-07-29T10:23:18;19.30;99.90
24814;DHT22;12904;50.088;11.414;2023-07-29T10:25:47;19.10;99.90
24814;DHT22;12904;50.088;11.414;2023-07-29T10:28:15;19.10;99.90
24814;DHT22;12904;50.088;11.414;2023-07-29T10:30:41;19.20;99.90
24814;DHT22;12904;50.088;11.414;2023-07-29T10:33:07;19.40;99.90
24814;DHT22;12904;50.088;11.414;2023-07-29T10:35:33;19.70;99.90
24814;DHT22;12904;50.088;11.414;2023-07-29T10:38:00;20.00;99.90
24814;DHT22;12904;50.088;11.414;2023-07-29T10:40:25;20.10;99.90
24814;DHT22;12904;50.088;11.414;2023-07-29T10:43:11;20.30;99.90
24814;DHT22;12904;50.088;11.414;2023-07-29T10:45:38;20.60;99.90
24814;DHT22;12904;50.088;11.414;2023-07-29T10:48:13;20.70;99.90
24814;DHT22;12904;50.088;11.414;2023-07-29T10:53:47;21.10;99.90
24814;DHT22;12904;50.088;11.414;2023-07-29T10:56:13;21.20;99.90
24814;DHT22;12904;50.088;11.414;2023-07-29T10:58:38;21.40;99.90
24814;DHT22;12904;50.088;11.414;2023-07-29T11:01:12;21.30;99.90
24814;DHT22;12904;50.088;11.414;2023-07-29T11:03:38;21.40;99.90
24814;DHT22;12904;50.088;11.414;2023-07-29T11:06:06;21.10;99.90
24814;DHT22;12904;50.088;11.414;2023-07-29T11:08:32;20.80;99.90
24814;DHT22;12904;50.088;11.414;2023-07-29T11:11:07;20.60;99.90
24814;DHT22;12904;50.088;11.414;2023-07-29T11:13:36;20.70;99.90
24814;DHT22;12904;50.088;11.414;2023-07-29T11:16:02;20.90;99.90
24814;DHT22;12904;50.088;11.414;2023-07-29T11:18:34;21.20;99.90
24814;DHT22;12904;50.088;11.414;2023-07-29T11:21:01;21.40;99.90
24814;DHT22;12904;50.088;11.414;2023-07-29T11:23:31;21.60;99.90
24814;DHT22;12904;50.088;11.414;2023-07-29T11:25:57;21.70;99.90
24814;DHT22;12904;50.088;11.414;2023-07-29T11:28:24;21.70;99.90
24814;DHT22;12904;50.088;11.414;2023-07-29T11:30:50;21.80;99.90
24814;DHT22;12904;50.088;11.414;2023-07-29T11:33:24;21.70;99.90
24814;DHT22;12904;50.088;11.414;2023-07-29T11:35:51;21.50;99.90
24814;DHT22;12904;50.088;11.414;2023-07-29T11:38:19;21.30;99.90
24814;DHT22;12904;50.088;11.414;2023-07-29T11:40:56;21.20;99.90
24814;DHT22;12904;50.088;11.414;2023-07-29T11:43:22;21.20;99.90
24814;DHT22;12904;50.088;11.414;2023-07-29T11:45:47;21.40;99.90
24814;DHT22;12904;50.088;11.414;2023-07-29T11:48:13;21.60;99.90
24814;DHT22;12904;50.088;11.414;2023-07-29T11:50:38;21.90;99.90
24814;DHT22;12904;50.088;11.414;2023-07-29T11:53:05;22.30;99.90
24814;DHT22;12904;50.088;11.414;2023-07-29T11:55:30;22.60;99.90
24814;DHT22;12904;50.088;11.414;2023-07-29T11:57:56;22.70;99.90
24814;DHT22;12904;50.088;11.414;2023-07-29T12:00:22;22.70;99.90
24814;DHT22;12904;50.088;11.414;2023-07-29T12:02:49;22.60;99.90
24814;DHT22;12904;50.088;11.414;2023-07-29T12:05:15;22.50;99.90
24814;DHT22;12904;50.088;11.414;2023-07-29T12:07:43;22.40;99.90
24814;DHT22;12904;50.088;11.414;2023-07-29T12:10:10;22.30;99.90
24814;DHT22;12904;50.088;11.414;2023-07-29T12:12:49;22.30;99.90
24814;DHT22;12904;50.088;11.414;2023-07-29T12:15:25;22.20;99.90
24814;DHT22;12904;50.088;11.414;2023-07-29T12:17:55;22.30;99.90
24814;DHT22;12904;50.088;11.414;2023-07-29T12:20:22;22.50;99.90
24814;DHT22;12904;50.088;11.414;2023-07-29T12:23:01;22.70;99.90
24814;DHT22;12904;50.088;11.414;2023-07-29T12:25:31;23.00;99.90
24814;DHT22;12904;50.088;11.414;2023-07-29T12:28:16;23.10;99.90
24814;DHT22;12904;50.088;11.414;2023-07-29T12:30:42;23.10;99.90
24814;DHT22;12904;50.088;11.414;2023-07-29T12:33:08;23.00;99.90
24814;DHT22;12904;50.088;11.414;2023-07-29T12:35:37;22.90;99.90
24814;DHT22;12904;50.088;11.414;2023-07-29T12:38:03;23.00;99.90
24814;DHT22;12904;50.088;11.414;2023-07-29T12:40:29;23.20;99.90
24814;DHT22;12904;50.088;11.414;2023-07-29T12:42:55;23.10;99.90
24814;DHT22;12904;50.088;11.414;2023-07-29T12:45:21;23.00;99.90
24814;DHT22;12904;50.088;11.414;2023-07-29T12:47:49;23.20;99.90
24814;DHT22;12904;50.088;11.414;2023-07-29T12:50:15;23.20;99.90
24814;DHT22;12904;50.088;11.414;2023-07-29T12:52:41;23.20;99.90
24814;DHT22;12904;50.088;11.414;2023-07-29T12:55:06;23.30;99.90
24814;DHT22;12904;50.088;11.414;2023-07-29T12:57:34;23.50;99.90
24814;DHT22;12904;50.088;11.414;2023-07-29T13:00:00;23.60;99.90
24814;DHT22;12904;50.088;11.414;2023-07-29T13:02:26;23.70;99.90
24814;DHT22;12904;50.088;11.414;2023-07-29T13:04:51;23.80;99.90
24814;DHT22;12904;50.088;11.414;2023-07-29T13:07:17;23.70;99.90
24814;DHT22;12904;50.088;11.414;2023-07-29T13:09:42;23.90;99.90
24814;DHT22;12904;50.088;11.414;2023-07-29T13:12:08;24.10;99.90
24814;DHT22;12904;50.088;11.414;2023-07-29T13:14:34;24.20;99.90
24814;DHT22;12904;50.088;11.414;2023-07-29T13:16:59;24.10;99.90
24814;DHT22;12904;50.088;11.414;2023-07-29T13:19:25;24.00;99.90
24814;DHT22;12904;50.088;11.414;2023-07-29T13:21:50;24.10;99.90
24814;DHT22;12904;50.088;11.414;2023-07-29T13:24:16;24.20;99.90
24814;DHT22;12904;50.088;11.414;2023-07-29T13:26:41;24.30;99.90
24814;DHT22;12904;50.088;11.414;2023-07-29T13:29:07;24.30;99.90
24814;DHT22;12904;50.088;11.414;2023-07-29T13:31:33;24.30;99.90
24814;DHT22;12904;50.088;11.414;2023-07-29T13:33:58;24.10;99.90
24814;DHT22;12904;50.088;11.414;2023-07-29T13:36:24;24.20;99.90
24814;DHT22;12904;50.088;11.414;2023-07-29T13:38:50;24.20;99.90
24814;DHT22;12904;50.088;11.414;2023-07-29T13:41:15;24.20;99.90
24814;DHT22;12904;50.088;11.414;2023-07-29T13:43:41;24.10;99.90
24814;DHT22;12904;50.088;11.414;2023-07-29T13:46:06;23.90;99.90
24814;DHT22;12904;50.088;11.414;2023-07-29T13:48:32;23.70;99.90
24814;DHT22;12904;50.088;11.414;2023-07-29T13:50:58;23.60;99.90
24814;DHT22;12904;50.088;11.414;2023-07-29T13:53:24;23.90;99.90
24814;DHT22;12904;50.088;11.414;2023-07-29T13:55:49;24.20;99.90
24814;DHT22;12904;50.088;11.414;2023-07-29T13:58:15;24.40;99.90
24814;DHT22;12904;50.088;11.414;2023-07-29T14:00:40;24.60;99.90
24814;DHT22;12904;50.088;11.414;2023-07-29T14:03:06;24.90;99.90
24814;DHT22;12904;50.088;11.414;2023-07-29T14:05:32;25.00;99.90
24814;DHT22;12904;50.088;11.414;2023-07-29T14:07:57;25.00;99.90
24814;DHT22;12904;50.088;11.414;2023-07-29T14:10:23;25.10;99.90
24814;DHT22;12904;50.088;11.414;2023-07-29T14:12:49;25.30;99.90
24814;DHT22;12904;50.088;11.414;2023-07-29T14:15:15;25.40;99.90
24814;DHT22;12904;50.088;11.414;2023-07-29T14:17:41;25.00;99.90
24814;DHT22;12904;50.088;11.414;2023-07-29T14:20:07;24.80;99.90
24814;DHT22;12904;50.088;11.414;2023-07-29T14:22:33;24.40;99.90
24814;DHT22;12904;50.088;11.414;2023-07-29T14:24:58;24.10;99.90
24814;DHT22;12904;50.088;11.414;2023-07-29T14:27:24;23.90;99.90
24814;DHT22;12904;50.088;11.414;2023-07-29T14:29:49;23.80;99.90
24814;DHT22;12904;50.088;11.414;2023-07-29T14:32:15;23.70;99.90
24814;DHT22;12904;50.088;11.414;2023-07-29T14:34:40;23.60;99.90
24814;DHT22;12904;50.088;11.414;2023-07-29T14:37:06;23.90;99.90
24814;DHT22;12904;50.088;11.414;2023-07-29T14:39:32;24.40;99.90
24814;DHT22;12904;50.088;11.414;2023-07-29T14:41:58;24.60;99.90
24814;DHT22;12904;50.088;11.414;2023-07-29T14:44:23;24.60;99.90
24814;DHT22;12904;50.088;11.414;2023-07-29T14:46:49;24.80;99.90
24814;DHT22;12904;50.088;11.414;2023-07-29T14:49:15;25.10;99.90
24814;DHT22;12904;50.088;11.414;2023-07-29T14:51:40;25.40;99.90
24814;DHT22;12904;50.088;11.414;2023-07-29T14:54:06;25.60;99.90
24814;DHT22;12904;50.088;11.414;2023-07-29T14:56:31;25.80;99.90
24814;DHT22;12904;50.088;11.414;2023-07-29T14:58:57;25.80;99.90
24814;DHT22;12904;50.088;11.414;2023-07-29T15:01:23;25.80;99.90
24814;DHT22;12904;50.088;11.414;2023-07-29T15:03:48;25.70;99.90
24814;DHT22;12904;50.088;11.414;2023-07-29T15:06:14;25.50;99.90
24814;DHT22;12904;50.088;11.414;2023-07-29T15:08:39;25.40;99.90
24814;DHT22;12904;50.088;11.414;2023-07-29T15:11:05;25.50;99.90
24814;DHT22;12904;50.088;11.414;2023-07-29T15:13:31;25.70;99.90
24814;DHT22;12904;50.088;11.414;2023-07-29T15:15:56;25.70;99.90
24814;DHT22;12904;50.088;11.414;2023-07-29T15:18:22;25.70;99.90
24814;DHT22;12904;50.088;11.414;2023-07-29T15:20:48;25.70;99.90
24814;DHT22;12904;50.088;11.414;2023-07-29T15:23:13;25.60;99.90
24814;DHT22;12904;50.088;11.414;2023-07-29T15:25:39;25.60;99.90